Time;durP1;ratioP1;P1;durP2;ratioP2;P2;SDS_P1;SDS_P2;PMS_P1;PMS_P2;Temp;Humidity;BMP_temperature;BMP_pressure;BME280_temperature;BME280_humidity;BME280_pressure;Samples;Min_cycle;Max_cycle;Signal;HPM_P1;HPM_P2
2023/07/29 00:00:55;;;;;;;;;5.25;5.25;;;;;;;;5118372;27;45322;-42
2023/07/29 00:03:20;;;;;;;;;8.20;7.00;;;;;;;;5118497;27;45366;-42
2023/07/29 00:05:47;;;;;;;;;11.75;7.75;;;;;;;;5118556;27;45437;-42
2023/07/29 00:08:12;;;;;;;;;5.40;5.40;;;;;;;;5118218;27;45487;-43
2023/07/29 00:10:37;;;;;;;;;7.00;7.00;;;;;;;;5118076;27;45371;-43
2023/07/29 00:13:03;;;;;;;;;7.75;5.25;;;;;;;;5100019;27;45398;-43
2023/07/29 00:15:29;;;;;;;;;7.25;5.50;;;;;;;;5118573;27;45603;-43
2023/07/29 00:17:54;;;;;;;;;6.00;6.00;;;;;;;;5118030;27;45291;-42
2023/07/29 00:20:19;;;;;;;;;7.50;7.50;;;;;;;;5117973;27;45309;-43
2023/07/29 00:22:44;;;;;;;;;8.00;7.00;;;;;;;;5118250;27;45356;-43
2023/07/29 00:25:09;;;;;;;;;9.50;7.00;;;;;;;;5118446;27;45252;-43
2023/07/29 00:27:35;;;;;;;;;7.50;7.50;;;;;;;;5117946;27;47468;-43
2023/07/29 00:30:00;;;;;;;;;10.50;9.00;;;;;;;;5117948;27;45337;-42
2023/07/29 00:32:27;;;;;;;;;13.00;13.00;;;;;;;;5117954;27;45292;-43
2023/07/29 00:34:52;;;;;;;;;4.00;4.00;;;;;;;;5118311;27;45484;-42
2023/07/29 00:37:17;;;;;;;;;4.00;4.00;;;;;;;;5117849;27;46220;-43
2023/07/29 00:39:42;;;;;;;;;5.00;5.00;;;;;;;;5117736;27;45426;-42
2023/07/29 00:42:08;;;;;;;;;6.00;4.60;;;;;;;;5117864;27;45357;-44
2023/07/29 00:44:34;;;;;;;;;4.50;4.50;;;;;;;;5117987;27;45425;-43
2023/07/29 00:47:00;;;;;;;;;4.00;4.00;;;;;;;;5117704;27;45975;-43
2023/07/29 00:49:26;;;;;;;;;4.00;4.00;;;;;;;;5117832;27;45358;-42
2023/07/29 00:51:51;;;;;;;;;2.00;2.00;;;;;;;;5117813;27;45834;-42
2023/07/29 00:54:16;;;;;;;;;2.00;2.00;;;;;;;;5117831;27;45316;-43
2023/07/29 00:56:42;;;;;;;;;4.00;2.25;;;;;;;;5117638;27;45449;-42
2023/07/29 00:59:08;;;;;;;;;3.00;3.00;;;;;;;;5120317;27;45501;-42
2023/07/29 01:01:33;;;;;;;;;2.00;2.00;;;;;;;;5121204;27;45496;-42
2023/07/29 01:03:58;;;;;;;;;2.75;2.75;;;;;;;;5121524;27;45389;-43
2023/07/29 01:06:29;;;;;;;;;6.00;6.00;;;;;;;;5120362;27;45378;-43
2023/07/29 01:09:02;;;;;;;;;4.60;3.00;;;;;;;;5121191;27;45223;-43
2023/07/29 01:11:28;;;;;;;;;4.00;4.00;;;;;;;;5121054;27;45465;-41
2023/07/29 01:13:58;;;;;;;;;2.00;2.00;;;;;;;;5102620;27;45522;-42
2023/07/29 01:16:30;;;;;;;;;1.60;1.60;;;;;;;;5120807;27;46383;-42
2023/07/29 01:18:58;;;;;;;;;1.40;1.40;;;;;;;;5120852;27;45396;-41
2023/07/29 01:21:25;;;;;;;;;2.60;2.00;;;;;;;;5120865;27;45357;-41
2023/07/29 01:23:57;;;;;;;;;2.00;2.00;;;;;;;;5121224;27;45188;-42
2023/07/29 01:26:23;;;;;;;;;2.00;2.00;;;;;;;;5120964;27;45355;-42
2023/07/29 01:28:48;;;;;;;;;1.00;1.00;;;;;;;;5120160;27;45318;-42
2023/07/29 01:31:16;;;;;;;;;3.00;3.00;;;;;;;;5120972;27;45360;-42
2023/07/29 01:33:48;;;;;;;;;2.00;1.60;;;;;;;;5120723;27;45241;-42
2023/07/29 01:36:18;;;;;;;;;1.00;1.00;;;;;;;;5120526;27;46253;-42
2023/07/29 01:38:44;;;;;;;;;1.80;1.80;;;;;;;;5120512;27;45350;-42
2023/07/29 01:41:10;;;;;;;;;2.75;2.75;;;;;;;;5120545;27;45465;-42
2023/07/29 01:43:42;;;;;;;;;2.75;1.25;;;;;;;;5120822;27;45456;-41
2023/07/29 01:46:07;;;;;;;;;3.40;2.80;;;;;;;;5120537;27;46142;-42
2023/07/29 01:48:33;;;;;;;;;3.00;3.00;;;;;;;;5120499;27;45176;-42
2023/07/29 01:50:58;;;;;;;;;3.00;3.00;;;;;;;;5120539;27;45341;-42
2023/07/29 01:53:23;;;;;;;;;1.25;0.75;;;;;;;;5120705;27;45246;-43
2023/07/29 01:55:48;;;;;;;;;2.00;2.00;;;;;;;;5120091;27;46902;-43
2023/07/29 01:58:14;;;;;;;;;1.75;1.75;;;;;;;;5120536;27;45290;-44
2023/07/29 02:00:39;;;;;;;;;1.00;1.00;;;;;;;;5120308;27;45613;-42
2023/07/29 02:03:05;;;;;;;;;2.25;1.75;;;;;;;;5119681;27;45531;-43
2023/07/29 02:05:30;;;;;;;;;2.00;2.00;;;;;;;;5120290;27;46262;-42
2023/07/29 02:07:55;;;;;;;;;1.00;1.00;;;;;;;;5120217;27;45484;-42
2023/07/29 02:10:20;;;;;;;;;1.00;1.00;;;;;;;;5119324;27;45444;-42
2023/07/29 02:12:46;;;;;;;;;1.25;1.25;;;;;;;;5120416;27;45469;-42
2023/07/29 02:15:11;;;;;;;;;1.25;1.25;;;;;;;;5119886;27;46750;-42
2023/07/29 02:17:36;;;;;;;;;3.00;2.00;;;;;;;;5119992;27;45384;-42
2023/07/29 02:20:03;;;;;;;;;2.50;2.50;;;;;;;;5120038;27;45455;-43
2023/07/29 02:22:28;;;;;;;;;1.40;1.40;;;;;;;;5120186;27;45431;-42
2023/07/29 02:24:54;;;;;;;;;2.00;2.00;;;;;;;;5119632;27;46310;-42
2023/07/29 02:27:19;;;;;;;;;1.00;1.00;;;;;;;;5119151;27;45412;-42
2023/07/29 02:29:44;;;;;;;;;2.50;2.50;;;;;;;;5119945;27;45329;-43
2023/07/29 02:32:09;;;;;;;;;2.00;1.00;;;;;;;;5120056;27;45297;-42
2023/07/29 02:34:34;;;;;;;;;3.00;1.00;;;;;;;;5119493;27;45985;-42
2023/07/29 02:37:00;;;;;;;;;2.25;1.50;;;;;;;;5119599;27;45470;-42
2023/07/29 02:39:25;;;;;;;;;1.50;1.50;;;;;;;;5119738;27;45370;-42
2023/07/29 02:41:51;;;;;;;;;0.50;0.50;;;;;;;;5119831;27;45524;-40
2023/07/29 02:44:16;;;;;;;;;2.00;2.00;;;;;;;;5119203;27;46050;-40
2023/07/29 02:46:41;;;;;;;;;2.25;2.25;;;;;;;;5119459;27;45181;-42
2023/07/29 02:49:07;;;;;;;;;1.75;1.75;;;;;;;;5119498;27;45233;-43
2023/07/29 02:51:32;;;;;;;;;2.00;1.00;;;;;;;;5119705;27;45205;-42
2023/07/29 02:53:57;;;;;;;;;1.00;1.00;;;;;;;;5119154;27;45359;-42
2023/07/29 02:56:22;;;;;;;;;1.00;1.00;;;;;;;;5119328;27;45274;-42
2023/07/29 02:58:48;;;;;;;;;1.00;1.00;;;;;;;;5119428;27;45199;-42
2023/07/29 03:01:13;;;;;;;;;1.50;1.50;;;;;;;;5119391;27;45521;-42
2023/07/29 03:03:39;;;;;;;;;3.75;2.00;;;;;;;;5119305;27;45965;-43
2023/07/29 03:06:05;;;;;;;;;2.75;1.00;;;;;;;;5119145;27;45232;-42
2023/07/29 03:08:31;;;;;;;;;2.60;1.80;;;;;;;;5119278;27;45453;-42
2023/07/29 03:10:57;;;;;;;;;1.00;1.00;;;;;;;;5119176;27;45526;-42
2023/07/29 03:13:22;;;;;;;;;1.75;1.75;;;;;;;;5118870;27;46128;-42
2023/07/29 03:15:47;;;;;;;;;3.25;3.25;;;;;;;;5119117;27;45426;-42
2023/07/29 03:18:12;;;;;;;;;2.50;2.50;;;;;;;;5119284;27;45480;-42
2023/07/29 03:20:37;;;;;;;;;1.00;1.00;;;;;;;;5119167;27;45518;-42
2023/07/29 03:23:03;;;;;;;;;2.75;2.75;;;;;;;;5100371;27;46065;-42
2023/07/29 03:25:28;;;;;;;;;2.75;2.75;;;;;;;;5118723;27;45425;-42
2023/07/29 03:27:54;;;;;;;;;2.75;2.50;;;;;;;;5119080;27;45286;-41
2023/07/29 03:30:19;;;;;;;;;1.25;1.25;;;;;;;;5118932;27;45367;-42
2023/07/29 03:32:45;;;;;;;;;2.00;2.00;;;;;;;;5118451;27;45279;-42
2023/07/29 03:35:10;;;;;;;;;2.00;2.00;;;;;;;;5118678;27;45445;-42
2023/07/29 03:37:36;;;;;;;;;1.75;1.50;;;;;;;;5118814;27;45362;-41
2023/07/29 03:40:01;;;;;;;;;2.50;2.00;;;;;;;;5118871;27;45424;-42
2023/07/29 03:42:28;;;;;;;;;2.20;2.20;;;;;;;;5118612;27;46245;-42
2023/07/29 03:44:53;;;;;;;;;1.50;1.50;;;;;;;;5100084;27;45481;-42
2023/07/29 03:47:18;;;;;;;;;2.00;2.00;;;;;;;;5118312;27;45202;-41
2023/07/29 03:49:43;;;;;;;;;2.00;2.00;;;;;;;;5118873;27;45390;-42
2023/07/29 03:52:09;;;;;;;;;1.00;1.00;;;;;;;;5118350;27;47191;-42
2023/07/29 03:54:34;;;;;;;;;2.25;2.25;;;;;;;;5118271;27;45360;-42
2023/07/29 03:56:59;;;;;;;;;2.00;2.00;;;;;;;;5118573;27;45251;-42
2023/07/29 03:59:24;;;;;;;;;2.00;2.00;;;;;;;;5118656;27;45205;-42
2023/07/29 04:01:49;;;;;;;;;3.00;2.75;;;;;;;;5118268;27;45499;-42
2023/07/29 04:04:15;;;;;;;;;3.25;3.00;;;;;;;;5118489;27;45203;-42
2023/07/29 04:06:40;;;;;;;;;3.00;3.00;;;;;;;;5118433;27;45308;-41
2023/07/29 04:09:05;;;;;;;;;3.75;3.75;;;;;;;;5118607;27;45302;-42
2023/07/29 04:11:30;;;;;;;;;5.00;2.50;;;;;;;;5117920;27;45452;-41
2023/07/29 04:13:56;;;;;;;;;2.25;2.25;;;;;;;;5118165;27;45299;-41
2023/07/29 04:16:21;;;;;;;;;2.75;2.75;;;;;;;;5118464;27;45296;-41
2023/07/29 04:18:46;;;;;;;;;2.75;2.75;;;;;;;;5118290;27;45297;-41
2023/07/29 04:21:12;;;;;;;;;2.00;2.00;;;;;;;;5118074;27;46297;-41
2023/07/29 04:23:37;;;;;;;;;3.00;1.50;;;;;;;;5099395;27;45315;-44
2023/07/29 04:26:02;;;;;;;;;2.00;2.00;;;;;;;;5118038;27;45710;-42
2023/07/29 04:28:28;;;;;;;;;1.75;1.75;;;;;;;;5118272;27;45414;-42
2023/07/29 04:30:53;;;;;;;;;1.50;0.75;;;;;;;;5117783;27;47014;-44
2023/07/29 04:33:18;;;;;;;;;2.00;2.00;;;;;;;;5119375;27;45269;-42
2023/07/29 04:35:44;;;;;;;;;3.00;3.00;;;;;;;;5103210;27;45464;-42
2023/07/29 04:38:09;;;;;;;;;2.50;2.50;;;;;;;;5121690;27;45503;-42
2023/07/29 04:40:34;;;;;;;;;3.00;2.00;;;;;;;;5121149;27;47340;-42
2023/07/29 04:43:02;;;;;;;;;3.25;3.25;;;;;;;;5121440;27;45451;-42
2023/07/29 04:45:29;;;;;;;;;5.80;2.20;;;;;;;;5121727;27;45366;-41
2023/07/29 04:47:54;;;;;;;;;3.00;3.00;;;;;;;;5121577;27;45512;-42
2023/07/29 04:50:19;;;;;;;;;1.75;1.75;;;;;;;;5121142;27;47141;-42
2023/07/29 04:52:44;;;;;;;;;1.50;1.50;;;;;;;;5121350;27;45286;-41
2023/07/29 04:55:10;;;;;;;;;2.75;1.00;;;;;;;;5121200;27;45416;-41
2023/07/29 04:57:35;;;;;;;;;2.00;2.00;;;;;;;;5121407;27;45454;-42
2023/07/29 05:00:00;;;;;;;;;2.00;2.00;;;;;;;;5120999;27;47005;-41
2023/07/29 05:02:25;;;;;;;;;1.25;1.25;;;;;;;;5121325;27;45547;-41
2023/07/29 05:04:51;;;;;;;;;2.50;2.50;;;;;;;;5121037;27;45477;-41
2023/07/29 05:07:16;;;;;;;;;2.00;2.00;;;;;;;;5121462;27;45428;-41
2023/07/29 05:09:41;;;;;;;;;1.00;1.00;;;;;;;;5121169;27;45645;-43
2023/07/29 05:12:06;;;;;;;;;2.75;2.75;;;;;;;;5120745;27;45400;-42
2023/07/29 05:14:32;;;;;;;;;1.00;1.00;;;;;;;;5121061;27;45628;-42
2023/07/29 05:16:57;;;;;;;;;2.50;1.75;;;;;;;;5121233;27;45453;-41
2023/07/29 05:19:22;;;;;;;;;1.00;1.00;;;;;;;;5120716;27;46892;-41
2023/07/29 05:21:47;;;;;;;;;2.25;1.00;;;;;;;;5120828;27;45287;-42
2023/07/29 05:24:12;;;;;;;;;3.75;2.00;;;;;;;;5120860;27;45368;-42
2023/07/29 05:26:38;;;;;;;;;1.75;1.75;;;;;;;;5120724;27;45317;-42
2023/07/29 05:29:03;;;;;;;;;1.75;1.75;;;;;;;;5120757;27;46132;-43
2023/07/29 05:31:29;;;;;;;;;2.50;2.50;;;;;;;;5120506;27;45256;-41
2023/07/29 05:33:54;;;;;;;;;3.00;1.00;;;;;;;;5120593;27;45437;-41
2023/07/29 05:36:19;;;;;;;;;2.00;2.00;;;;;;;;5120926;27;45466;-41
2023/07/29 05:38:45;;;;;;;;;2.00;2.00;;;;;;;;5120529;27;46034;-42
2023/07/29 05:41:10;;;;;;;;;2.75;2.00;;;;;;;;5120188;27;45472;-42
2023/07/29 05:43:35;;;;;;;;;2.50;1.75;;;;;;;;5120447;27;45387;-42
2023/07/29 05:46:00;;;;;;;;;1.50;1.50;;;;;;;;5119908;27;45389;-42
2023/07/29 05:48:26;;;;;;;;;2.50;0.00;;;;;;;;5120449;27;46290;-41
2023/07/29 05:50:51;;;;;;;;;3.00;1.25;;;;;;;;5120427;27;45390;-42
2023/07/29 05:53:16;;;;;;;;;2.00;2.00;;;;;;;;5120266;27;45335;-41
2023/07/29 05:55:41;;;;;;;;;0.00;0.00;;;;;;;;5120563;27;45378;-43
2023/07/29 05:58:06;;;;;;;;;4.00;1.00;;;;;;;;5120279;27;45355;-42
2023/07/29 06:00:32;;;;;;;;;1.25;1.25;;;;;;;;5120031;27;45427;-41
2023/07/29 06:02:57;;;;;;;;;1.25;1.25;;;;;;;;5120423;27;45341;-42
2023/07/29 06:05:22;;;;;;;;;2.00;2.00;;;;;;;;5120314;27;45552;-42
2023/07/29 06:07:48;;;;;;;;;2.50;2.50;;;;;;;;5119954;27;46347;-41
2023/07/29 06:10:14;;;;;;;;;3.00;3.00;;;;;;;;5119866;27;45199;-42
2023/07/29 06:12:39;;;;;;;;;3.60;2.00;;;;;;;;5119993;27;45476;-42
2023/07/29 06:15:04;;;;;;;;;2.00;2.00;;;;;;;;5120358;27;45244;-41
2023/07/29 06:17:29;;;;;;;;;1.25;1.00;;;;;;;;5119606;27;46199;-43
2023/07/29 06:19:55;;;;;;;;;1.00;1.00;;;;;;;;5119717;27;45302;-42
2023/07/29 06:22:20;;;;;;;;;0.75;0.75;;;;;;;;5120077;27;45328;-42
2023/07/29 06:24:45;;;;;;;;;1.00;1.00;;;;;;;;5120046;27;45330;-43
2023/07/29 06:27:10;;;;;;;;;1.00;1.00;;;;;;;;5119765;27;46247;-42
2023/07/29 06:29:35;;;;;;;;;3.00;1.00;;;;;;;;5119665;27;45226;-42
2023/07/29 06:32:01;;;;;;;;;2.75;2.00;;;;;;;;5120029;27;45334;-42
2023/07/29 06:34:26;;;;;;;;;3.00;3.00;;;;;;;;5119818;27;45489;-44
2023/07/29 06:36:51;;;;;;;;;2.00;2.00;;;;;;;;5119464;27;46279;-44
2023/07/29 06:39:17;;;;;;;;;1.00;1.00;;;;;;;;5119602;27;45312;-42
2023/07/29 06:41:42;;;;;;;;;2.75;2.75;;;;;;;;5119506;27;45381;-41
2023/07/29 06:44:07;;;;;;;;;2.50;1.25;;;;;;;;5119814;27;45362;-42
2023/07/29 06:46:32;;;;;;;;;1.50;1.00;;;;;;;;5119430;27;46156;-42
2023/07/29 06:48:57;;;;;;;;;1.00;1.00;;;;;;;;5119478;27;45286;-42
2023/07/29 06:51:23;;;;;;;;;1.00;1.00;;;;;;;;5119724;27;45432;-40
2023/07/29 06:53:48;;;;;;;;;0.50;0.50;;;;;;;;5119473;27;45429;-41
2023/07/29 06:56:13;;;;;;;;;0.00;0.00;;;;;;;;5118629;27;46282;-41
2023/07/29 06:58:38;;;;;;;;;0.25;0.25;;;;;;;;5119285;27;45443;-42
2023/07/29 07:01:04;;;;;;;;;0.25;0.25;;;;;;;;5119345;27;45348;-41
2023/07/29 07:03:29;;;;;;;;;0.50;0.50;;;;;;;;5119532;27;45389;-40
2023/07/29 07:05:54;;;;;;;;;0.00;0.00;;;;;;;;5119099;27;46248;-42
2023/07/29 07:08:19;;;;;;;;;1.00;1.00;;;;;;;;5119175;27;45382;-50
2023/07/29 07:10:46;;;;;;;;;0.00;0.00;;;;;;;;5119163;27;45353;-51
2023/07/29 07:13:11;;;;;;;;;0.00;0.00;;;;;;;;5119419;27;45449;-43
2023/07/29 07:15:36;;;;;;;;;1.00;1.00;;;;;;;;5119148;27;45345;-43
2023/07/29 07:18:01;;;;;;;;;0.00;0.00;;;;;;;;5119282;27;45515;-43
2023/07/29 07:20:27;;;;;;;;;0.00;0.00;;;;;;;;5119270;27;45302;-46
2023/07/29 07:22:52;;;;;;;;;0.00;0.00;;;;;;;;5118765;27;45169;-41
2023/07/29 07:25:17;;;;;;;;;0.00;0.00;;;;;;;;5119075;27;45396;-42
2023/07/29 07:27:42;;;;;;;;;0.00;0.00;;;;;;;;5119040;27;45308;-42
2023/07/29 07:30:08;;;;;;;;;0.00;0.00;;;;;;;;5119051;27;45215;-44
2023/07/29 07:32:33;;;;;;;;;0.50;0.50;;;;;;;;5118952;27;45208;-42
2023/07/29 07:34:58;;;;;;;;;1.00;1.00;;;;;;;;5118920;27;45350;-43
2023/07/29 07:37:23;;;;;;;;;1.00;0.00;;;;;;;;5119045;27;45397;-44
2023/07/29 07:39:48;;;;;;;;;1.00;1.00;;;;;;;;5119054;27;45290;-41
2023/07/29 07:42:14;;;;;;;;;0.00;0.00;;;;;;;;5118940;27;45355;-42
2023/07/29 07:44:39;;;;;;;;;0.25;0.25;;;;;;;;5118718;27;46021;-42
2023/07/29 07:47:04;;;;;;;;;0.00;0.00;;;;;;;;5118724;27;45331;-41
2023/07/29 07:49:29;;;;;;;;;0.75;0.75;;;;;;;;5118758;27;45329;-41
2023/07/29 07:51:55;;;;;;;;;0.00;0.00;;;;;;;;5118949;27;45191;-43
2023/07/29 07:54:20;;;;;;;;;1.00;1.00;;;;;;;;5118178;27;46290;-41
2023/07/29 07:56:45;;;;;;;;;1.00;1.00;;;;;;;;5118498;27;45235;-41
2023/07/29 07:59:10;;;;;;;;;2.25;0.00;;;;;;;;5118479;27;45462;-42
2023/07/29 08:01:36;;;;;;;;;0.50;0.50;;;;;;;;5118572;27;45213;-41
2023/07/29 08:04:02;;;;;;;;;1.00;1.00;;;;;;;;5118256;27;47118;-39
2023/07/29 08:06:27;;;;;;;;;1.00;1.00;;;;;;;;5118111;27;45484;-41
2023/07/29 08:08:52;;;;;;;;;3.00;1.00;;;;;;;;5117352;27;45439;-41
2023/07/29 08:11:17;;;;;;;;;1.75;1.75;;;;;;;;5118122;27;45531;-41
2023/07/29 08:13:42;;;;;;;;;0.25;0.25;;;;;;;;5117944;27;47311;-42
2023/07/29 08:16:08;;;;;;;;;1.00;1.00;;;;;;;;5118139;27;45354;-42
2023/07/29 08:18:33;;;;;;;;;0.00;0.00;;;;;;;;5118204;27;45288;-42
2023/07/29 08:21:03;;;;;;;;;0.00;0.00;;;;;;;;5118416;27;45432;-42
2023/07/29 08:23:29;;;;;;;;;1.00;1.00;;;;;;;;5099537;27;47707;-41
2023/07/29 08:25:56;;;;;;;;;0.25;0.25;;;;;;;;5118048;27;45338;-43
2023/07/29 08:28:22;;;;;;;;;4.60;1.00;;;;;;;;5117987;27;45463;-42
2023/07/29 08:30:47;;;;;;;;;1.40;1.40;;;;;;;;5118158;27;45345;-42
2023/07/29 08:33:12;;;;;;;;;0.00;0.00;;;;;;;;5117739;27;46249;-41
2023/07/29 08:35:37;;;;;;;;;1.00;1.00;;;;;;;;5117874;27;45854;-42
2023/07/29 08:38:04;;;;;;;;;1.00;1.00;;;;;;;;5117407;27;45426;-48
2023/07/29 08:40:29;;;;;;;;;1.00;1.00;;;;;;;;5118159;27;45482;-40
2023/07/29 08:42:57;;;;;;;;;2.00;2.00;;;;;;;;5117579;27;46809;-40
2023/07/29 08:45:23;;;;;;;;;2.20;2.20;;;;;;;;5117921;27;45302;-42
2023/07/29 08:47:50;;;;;;;;;1.40;1.40;;;;;;;;5117944;27;45235;-41
2023/07/29 08:50:15;;;;;;;;;1.00;1.00;;;;;;;;5117883;27;45376;-41
2023/07/29 08:52:42;;;;;;;;;1.00;1.00;;;;;;;;5117914;27;45472;-42
2023/07/29 08:55:07;;;;;;;;;2.00;2.00;;;;;;;;5099240;27;45326;-40
2023/07/29 08:57:33;;;;;;;;;0.00;0.00;;;;;;;;5117833;27;45259;-49
2023/07/29 08:59:58;;;;;;;;;1.25;1.25;;;;;;;;5117689;27;45408;-42
2023/07/29 09:02:23;;;;;;;;;1.00;1.00;;;;;;;;5117484;27;46161;-41
2023/07/29 09:04:49;;;;;;;;;2.00;1.00;;;;;;;;5117618;27;45381;-41
2023/07/29 09:07:14;;;;;;;;;0.50;0.50;;;;;;;;5117612;27;45413;-42
2023/07/29 09:09:39;;;;;;;;;2.50;1.50;;;;;;;;5117796;27;45367;-41
2023/07/29 09:12:05;;;;;;;;;2.00;0.50;;;;;;;;5117336;27;47220;-41
2023/07/29 09:14:30;;;;;;;;;1.00;1.00;;;;;;;;5098883;27;45489;-41
2023/07/29 09:16:56;;;;;;;;;1.00;1.00;;;;;;;;5117756;27;45322;-42
2023/07/29 09:19:24;;;;;;;;;1.00;1.00;;;;;;;;5119173;27;45345;-42
2023/07/29 09:21:50;;;;;;;;;1.00;1.00;;;;;;;;5120817;27;46385;-42
2023/07/29 09:24:16;;;;;;;;;1.00;1.00;;;;;;;;5120895;27;45353;-43
2023/07/29 09:26:48;;;;;;;;;0.20;0.00;;;;;;;;5120926;27;45356;-41
2023/07/29 09:29:13;;;;;;;;;0.40;0.40;;;;;;;;5121316;27;45349;-42
2023/07/29 09:31:38;;;;;;;;;1.75;0.50;;;;;;;;5120697;27;45913;-43
2023/07/29 09:34:05;;;;;;;;;0.50;0.50;;;;;;;;5120498;27;45373;-43
2023/07/29 09:36:31;;;;;;;;;1.80;0.80;;;;;;;;5120758;27;45420;-43
2023/07/29 09:38:56;;;;;;;;;0.00;0.00;;;;;;;;5121075;27;45427;-43
2023/07/29 09:41:22;;;;;;;;;0.00;0.00;;;;;;;;5101777;27;47500;-43
2023/07/29 09:43:47;;;;;;;;;0.00;0.00;;;;;;;;5120591;27;45575;-42
2023/07/29 09:46:12;;;;;;;;;0.00;0.00;;;;;;;;5120694;27;45428;-42
2023/07/29 09:48:38;;;;;;;;;1.00;1.00;;;;;;;;5120881;27;45468;-42
2023/07/29 09:51:13;;;;;;;;;1.75;1.75;;;;;;;;5120216;27;45994;-41
2023/07/29 09:53:42;;;;;;;;;0.20;0.20;;;;;;;;5120499;27;45401;-41
2023/07/29 09:56:08;;;;;;;;;0.80;0.40;;;;;;;;5120509;27;45378;-41
2023/07/29 09:58:33;;;;;;;;;0.25;0.25;;;;;;;;5120804;27;45313;-45
2023/07/29 10:00:58;;;;;;;;;3.00;1.00;;;;;;;;5120155;27;46150;-44
2023/07/29 10:03:25;;;;;;;;;1.00;1.00;;;;;;;;5120477;27;45283;-44
2023/07/29 10:05:50;;;;;;;;;0.20;0.20;;;;;;;;5120465;27;45294;-43
2023/07/29 10:08:16;;;;;;;;;1.00;1.00;;;;;;;;5120686;27;45331;-43
2023/07/29 10:10:44;;;;;;;;;0.50;0.50;;;;;;;;5120140;27;46232;-44
2023/07/29 10:13:09;;;;;;;;;1.60;1.60;;;;;;;;5120287;27;45507;-43
2023/07/29 10:15:35;;;;;;;;;0.75;0.50;;;;;;;;5120159;27;45435;-42
2023/07/29 10:18:01;;;;;;;;;0.60;0.60;;;;;;;;5120263;27;45252;-42
2023/07/29 10:20:26;;;;;;;;;2.25;1.00;;;;;;;;5119769;27;46154;-42
2023/07/29 10:22:55;;;;;;;;;3.50;1.75;;;;;;;;5119825;27;45427;-43
2023/07/29 10:25:24;;;;;;;;;2.00;1.40;;;;;;;;5120122;27;45233;-43
2023/07/29 10:27:52;;;;;;;;;1.00;1.00;;;;;;;;5120329;27;45300;-43
2023/07/29 10:30:18;;;;;;;;;1.40;1.40;;;;;;;;5118892;27;45279;-42
2023/07/29 10:32:44;;;;;;;;;1.25;1.25;;;;;;;;5119683;27;45235;-43
2023/07/29 10:35:10;;;;;;;;;2.20;2.20;;;;;;;;5119939;27;45207;-43
2023/07/29 10:37:35;;;;;;;;;4.25;1.00;;;;;;;;5119987;27;45893;-41
2023/07/29 10:40:05;;;;;;;;;3.00;1.75;;;;;;;;5119524;27;46106;-42
2023/07/29 10:42:30;;;;;;;;;2.80;2.60;;;;;;;;5119301;27;45343;-44
2023/07/29 10:44:55;;;;;;;;;1.00;1.00;;;;;;;;5119741;27;45361;-41
2023/07/29 10:47:22;;;;;;;;;3.00;3.00;;;;;;;;5119864;27;45423;-43
2023/07/29 10:49:52;;;;;;;;;3.00;2.00;;;;;;;;5119267;27;47391;-42
2023/07/29 10:52:36;;;;;;;;;2.00;2.00;;;;;;;;5118768;27;45319;-43
2023/07/29 10:55:02;;;;;;;;;3.20;3.20;;;;;;;;5119582;27;45397;-42
2023/07/29 10:57:32;;;;;;;;;2.80;2.80;;;;;;;;5119536;27;45451;-42
2023/07/29 10:59:57;;;;;;;;;2.80;1.00;;;;;;;;5119109;27;46941;-43
2023/07/29 11:02:29;;;;;;;;;2.25;2.25;;;;;;;;5100608;27;45429;-42
2023/07/29 11:04:54;;;;;;;;;2.40;2.00;;;;;;;;5119332;27;46093;-41
2023/07/29 11:07:23;;;;;;;;;5.00;4.25;;;;;;;;5119411;27;45265;-42
2023/07/29 11:09:51;;;;;;;;;2.40;2.40;;;;;;;;5119084;27;46127;-43
2023/07/29 11:12:35;;;;;;;;;2.40;2.40;;;;;;;;5118853;27;45326;-43
2023/07/29 11:15:02;;;;;;;;;3.60;2.00;;;;;;;;5119199;27;45347;-43
2023/07/29 11:17:29;;;;;;;;;2.00;2.00;;;;;;;;5119259;27;45403;-42
2023/07/29 11:19:56;;;;;;;;;7.75;7.00;;;;;;;;5118904;27;45330;-42
2023/07/29 11:22:22;;;;;;;;;2.00;2.00;;;;;;;;5118852;27;45369;-42
2023/07/29 11:24:47;;;;;;;;;2.75;2.75;;;;;;;;5119133;27;45431;-42
2023/07/29 11:27:12;;;;;;;;;2.00;2.00;;;;;;;;5119106;27;45202;-43
2023/07/29 11:29:37;;;;;;;;;0.75;0.75;;;;;;;;5118696;27;45477;-41
2023/07/29 11:32:02;;;;;;;;;2.00;2.00;;;;;;;;5118690;27;45232;-43
2023/07/29 11:34:34;;;;;;;;;1.00;1.00;;;;;;;;5118369;27;45392;-45
2023/07/29 11:36:59;;;;;;;;;1.00;1.00;;;;;;;;5119165;27;45285;-42
2023/07/29 11:39:24;;;;;;;;;1.00;1.00;;;;;;;;5118593;27;46229;-42
2023/07/29 11:41:49;;;;;;;;;1.00;0.75;;;;;;;;5118009;27;45329;-42
2023/07/29 11:44:18;;;;;;;;;2.00;2.00;;;;;;;;5118118;27;45417;-42
2023/07/29 11:46:43;;;;;;;;;1.80;0.60;;;;;;;;5118971;27;45551;-42
2023/07/29 11:49:08;;;;;;;;;1.50;0.00;;;;;;;;5118663;27;46233;-43
2023/07/29 11:51:34;;;;;;;;;2.00;2.00;;;;;;;;5118004;27;45365;-42
2023/07/29 11:54:00;;;;;;;;;2.50;1.00;;;;;;;;5118757;27;45329;-40
2023/07/29 11:56:25;;;;;;;;;1.25;1.25;;;;;;;;5118891;27;45212;-43
2023/07/29 11:58:50;;;;;;;;;2.50;1.00;;;;;;;;5118101;27;46124;-42
2023/07/29 12:01:16;;;;;;;;;1.00;1.00;;;;;;;;5118182;27;45262;-42
2023/07/29 12:03:42;;;;;;;;;1.00;1.00;;;;;;;;5118698;27;45223;-42
2023/07/29 12:06:07;;;;;;;;;1.80;1.80;;;;;;;;5118913;27;45197;-42
2023/07/29 12:08:32;;;;;;;;;2.25;2.00;;;;;;;;5118305;27;45661;-42
2023/07/29 12:10:58;;;;;;;;;2.75;1.25;;;;;;;;5118105;27;45492;-42
2023/07/29 12:13:26;;;;;;;;;2.00;1.00;;;;;;;;5118348;27;45392;-42
2023/07/29 12:15:51;;;;;;;;;1.80;1.80;;;;;;;;5118593;27;45334;-42
2023/07/29 12:18:16;;;;;;;;;3.00;2.50;;;;;;;;5099601;27;45414;-42
2023/07/29 12:20:42;;;;;;;;;4.00;2.50;;;;;;;;5118083;27;45398;-42
2023/07/29 12:23:08;;;;;;;;;4.75;1.75;;;;;;;;5118365;27;45361;-41
2023/07/29 12:25:34;;;;;;;;;1.80;1.80;;;;;;;;5117660;27;45450;-42
2023/07/29 12:28:03;;;;;;;;;4.60;2.80;;;;;;;;5117779;27;46408;-42
2023/07/29 12:30:28;;;;;;;;;3.00;3.00;;;;;;;;5117877;27;45398;-42
2023/07/29 12:32:53;;;;;;;;;2.00;2.00;;;;;;;;5117713;27;45396;-42
2023/07/29 12:35:19;;;;;;;;;3.75;2.00;;;;;;;;5117942;27;45394;-41
2023/07/29 12:37:44;;;;;;;;;3.75;3.00;;;;;;;;5117863;27;46021;-42
2023/07/29 12:40:22;;;;;;;;;5.50;4.25;;;;;;;;5117799;27;45313;-42
2023/07/29 12:42:48;;;;;;;;;1.20;1.00;;;;;;;;5117763;27;45675;-42
2023/07/29 12:45:14;;;;;;;;;2.50;2.50;;;;;;;;5117952;27;45342;-40
2023/07/29 12:47:40;;;;;;;;;3.40;3.20;;;;;;;;5117516;27;45762;-42
2023/07/29 12:50:05;;;;;;;;;3.50;2.25;;;;;;;;5117823;27;45381;-40
2023/07/29 12:52:30;;;;;;;;;4.00;4.00;;;;;;;;5117763;27;45215;-42
2023/07/29 12:54:56;;;;;;;;;2.00;2.00;;;;;;;;5120188;27;45454;-42
2023/07/29 12:57:21;;;;;;;;;3.00;2.75;;;;;;;;5102620;27;48205;-41
2023/07/29 12:59:46;;;;;;;;;1.25;1.00;;;;;;;;5121110;27;45509;-43
2023/07/29 13:02:11;;;;;;;;;4.75;3.50;;;;;;;;5120827;27;45474;-41
2023/07/29 13:04:37;;;;;;;;;6.50;3.00;;;;;;;;5121626;27;45204;-41
2023/07/29 13:07:02;;;;;;;;;6.00;6.00;;;;;;;;5120861;27;45448;-42
2023/07/29 13:09:27;;;;;;;;;3.00;3.00;;;;;;;;5121080;27;45230;-42
2023/07/29 13:11:52;;;;;;;;;1.75;1.25;;;;;;;;5121204;27;45410;-42
2023/07/29 13:14:17;;;;;;;;;1.00;1.00;;;;;;;;5121166;27;45323;-43
2023/07/29 13:16:43;;;;;;;;;2.00;2.00;;;;;;;;5121022;27;47104;-42
2023/07/29 13:19:08;;;;;;;;;1.50;1.50;;;;;;;;5120910;27;45311;-41
2023/07/29 13:21:33;;;;;;;;;3.00;2.00;;;;;;;;5120826;27;45274;-42
2023/07/29 13:23:58;;;;;;;;;1.00;1.00;;;;;;;;5121133;27;45371;-43
2023/07/29 13:26:23;;;;;;;;;3.00;1.25;;;;;;;;5120799;27;46119;-43
2023/07/29 13:28:48;;;;;;;;;1.25;1.25;;;;;;;;5120527;27;45380;-42
2023/07/29 13:31:14;;;;;;;;;2.00;2.00;;;;;;;;5120617;27;45291;-42
2023/07/29 13:33:39;;;;;;;;;1.00;1.00;;;;;;;;5120623;27;45421;-42
2023/07/29 13:36:05;;;;;;;;;3.00;2.00;;;;;;;;5120325;27;46330;-42
2023/07/29 13:38:30;;;;;;;;;1.00;1.00;;;;;;;;5120661;27;45385;-41
2023/07/29 13:40:56;;;;;;;;;5.00;1.00;;;;;;;;5120552;27;45341;-42
2023/07/29 13:43:21;;;;;;;;;2.00;2.00;;;;;;;;5120478;27;45367;-42
2023/07/29 13:45:48;;;;;;;;;0.25;0.25;;;;;;;;5120589;27;46127;-42
2023/07/29 13:48:13;;;;;;;;;3.00;2.00;;;;;;;;5120618;27;45307;-43
2023/07/29 13:50:39;;;;;;;;;1.00;1.00;;;;;;;;5120714;27;45282;-44
2023/07/29 13:53:04;;;;;;;;;1.75;1.25;;;;;;;;5120726;27;45215;-43
2023/07/29 13:55:29;;;;;;;;;3.00;2.00;;;;;;;;5120088;27;46209;-43
2023/07/29 13:57:54;;;;;;;;;2.00;2.00;;;;;;;;5120293;27;45302;-42
2023/07/29 14:00:20;;;;;;;;;2.50;2.00;;;;;;;;5120167;27;45336;-42
2023/07/29 14:02:45;;;;;;;;;3.75;2.00;;;;;;;;5120545;27;45219;-43
2023/07/29 14:05:11;;;;;;;;;1.25;1.00;;;;;;;;5119218;27;45515;-43
2023/07/29 14:07:36;;;;;;;;;1.20;1.00;;;;;;;;5119200;27;45267;-42
2023/07/29 14:10:02;;;;;;;;;2.00;2.00;;;;;;;;5120403;27;45340;-43
2023/07/29 14:12:27;;;;;;;;;1.00;1.00;;;;;;;;5120315;27;45313;-44
2023/07/29 14:14:52;;;;;;;;;1.00;1.00;;;;;;;;5120193;27;45595;-42
2023/07/29 14:17:17;;;;;;;;;1.00;1.00;;;;;;;;5119921;27;45397;-44
2023/07/29 14:19:42;;;;;;;;;2.00;2.00;;;;;;;;5120445;27;45366;-43
2023/07/29 14:22:08;;;;;;;;;2.75;2.75;;;;;;;;5120165;27;45382;-44
2023/07/29 14:24:34;;;;;;;;;1.75;1.75;;;;;;;;5119816;27;46039;-43
2023/07/29 14:26:59;;;;;;;;;5.00;2.00;;;;;;;;5119782;27;45409;-43
2023/07/29 14:29:24;;;;;;;;;0.75;0.75;;;;;;;;5119773;27;45252;-43
2023/07/29 14:31:49;;;;;;;;;2.00;2.00;;;;;;;;5120143;27;45402;-43
2023/07/29 14:34:14;;;;;;;;;2.50;1.50;;;;;;;;5119637;27;45497;-43